Terminal Aerodrome Forecast
Issued by NWS Memphis, TN

Home | Current Version | Previous Version | Text Only | Print | Product List | Glossary On
Versions: 1 2 3 4 5 6 7 8 9 10 11 12 13 14 15 16 17 18 19 20 21 22 23 24 25
000
FTUS44 KMEG 161120
TAFMEM
TAF
KMEM 161120Z 1612/1718 20008KT P6SM SCT250
     FM161600 20010G16KT P6SM SCT250
     FM162300 18006KT P6SM SCT150 BKN250
     FM170400 17004KT P6SM VCSH BKN100
     FM171000 VRB03KT 6SM -SHRA SCT035 BKN050
     FM171200 11011KT 4SM SHRA BKN025 OVC035
     FM171600 18005KT P6SM VCSH SCT015 OVC020=

USA.gov is the U.S. government's official web portal to all federal, state and local government web resources and services.